createdAt,value
2024-02-26T00:02:20.534Z,4.13
2024-02-26T00:04:49.894Z,4.18
2024-02-26T00:07:17.939Z,4.22
2024-02-26T00:09:45.884Z,4.22
2024-02-26T00:12:13.896Z,4.25
2024-02-26T00:14:42.443Z,4.28
2024-02-26T00:17:10.418Z,4.19
2024-02-26T00:19:38.500Z,4.27
2024-02-26T00:22:07.885Z,4.30
2024-02-26T00:24:35.878Z,4.25
2024-02-26T00:27:04.592Z,4.27
2024-02-26T00:29:33.557Z,4.26
2024-02-26T00:32:01.552Z,4.25
2024-02-26T00:34:29.697Z,4.24
2024-02-26T00:36:57.713Z,4.22
2024-02-26T00:39:27.078Z,4.24
2024-02-26T00:41:55.083Z,4.20
2024-02-26T00:44:23.153Z,4.20
2024-02-26T00:46:51.165Z,4.18
2024-02-26T00:49:19.182Z,4.09
2024-02-26T00:51:47.141Z,4.07
2024-02-26T00:54:15.194Z,4.05
2024-02-26T00:56:44.539Z,4.08
2024-02-26T00:59:12.562Z,4.04
2024-02-26T01:01:40.585Z,3.97
2024-02-26T01:04:08.698Z,3.96
2024-02-26T01:06:36.862Z,3.93
2024-02-26T01:09:05.129Z,3.93
2024-02-26T01:11:33.163Z,3.93
2024-02-26T01:14:02.494Z,3.95
2024-02-26T01:16:32.026Z,3.93
2024-02-26T01:19:00.191Z,3.90
2024-02-26T01:21:30.488Z,3.84
2024-02-26T01:23:58.546Z,3.80
2024-02-26T01:26:26.551Z,3.82
2024-02-26T01:28:56.077Z,3.75
2024-02-26T01:31:25.356Z,3.80
2024-02-26T01:33:53.978Z,3.81
2024-02-26T01:36:22.341Z,3.77
2024-02-26T01:38:50.338Z,3.77
2024-02-26T01:41:18.434Z,3.74
2024-02-26T01:43:46.396Z,3.72
2024-02-26T01:46:16.264Z,3.73
2024-02-26T01:48:46.701Z,3.69
2024-02-26T01:51:15.947Z,3.62
2024-02-26T01:53:44.475Z,3.56
2024-02-26T01:56:12.947Z,3.55
2024-02-26T01:58:40.958Z,3.49
2024-02-26T02:01:09.017Z,3.47
2024-02-26T02:03:37.110Z,3.50
2024-02-26T02:06:06.853Z,3.48
2024-02-26T02:08:36.241Z,3.45
2024-02-26T02:11:04.539Z,3.42
2024-02-26T02:13:32.538Z,3.45
2024-02-26T02:16:00.494Z,3.48
2024-02-26T02:18:28.487Z,3.49
2024-02-26T02:21:00.670Z,3.43
2024-02-26T02:23:28.666Z,3.47
2024-02-26T02:25:57.266Z,3.44
2024-02-26T02:28:26.258Z,3.46
2024-02-26T02:30:54.511Z,3.47
2024-02-26T02:33:23.268Z,3.43
2024-02-26T02:35:53.493Z,3.42
2024-02-26T02:38:24.406Z,3.34
2024-02-26T02:40:52.369Z,3.34
2024-02-26T02:43:20.329Z,3.24
2024-02-26T02:45:48.290Z,3.22
2024-02-26T02:48:16.428Z,3.16
2024-02-26T02:50:44.750Z,3.14
2024-02-26T02:53:12.766Z,3.11
2024-02-26T02:55:42.101Z,3.12
2024-02-26T02:58:10.206Z,3.09
2024-02-26T03:00:38.267Z,3.13
2024-02-26T03:03:07.501Z,3.18
2024-02-26T03:05:35.502Z,3.17
2024-02-26T03:08:03.504Z,3.08
2024-02-26T03:10:31.485Z,3.12
2024-02-26T03:13:00.794Z,3.09
2024-02-26T03:15:28.801Z,3.01
2024-02-26T03:17:56.870Z,3.09
2024-02-26T03:20:24.882Z,3.11
2024-02-26T03:22:52.892Z,3.10
2024-02-26T03:25:20.866Z,3.12
2024-02-26T03:27:48.817Z,3.13
2024-02-26T03:30:18.283Z,3.13
2024-02-26T03:32:46.661Z,3.07
2024-02-26T03:35:14.956Z,3.07
2024-02-26T03:37:42.963Z,3.07
2024-02-26T03:40:14.080Z,3.01
2024-02-26T03:42:42.056Z,2.98
2024-02-26T03:45:11.166Z,2.92
2024-02-26T03:47:41.627Z,2.88
2024-02-26T03:50:10.441Z,2.86
2024-02-26T03:52:38.590Z,2.90
2024-02-26T03:55:07.037Z,2.85
2024-02-26T03:57:35.018Z,2.84
2024-02-26T04:00:04.393Z,2.74
2024-02-26T04:02:38.867Z,2.78
2024-02-26T04:05:11.969Z,2.78
2024-02-26T04:07:39.937Z,2.77
2024-02-26T04:10:11.361Z,2.80
2024-02-26T04:12:40.738Z,2.76
2024-02-26T04:15:09.671Z,2.74
2024-02-26T04:17:38.242Z,2.77
2024-02-26T04:20:09.377Z,2.80
2024-02-26T04:22:37.332Z,2.83
2024-02-26T04:25:05.713Z,2.86
2024-02-26T04:27:33.768Z,2.85
2024-02-26T04:30:02.063Z,2.87
2024-02-26T04:32:30.254Z,2.82
2024-02-26T04:34:58.338Z,2.83
2024-02-26T04:37:31.995Z,2.82
2024-02-26T04:40:00.992Z,2.84
2024-02-26T04:42:29.065Z,2.91
2024-02-26T04:44:57.452Z,2.93
2024-02-26T04:47:25.582Z,2.93
2024-02-26T04:49:54.083Z,2.94
2024-02-26T04:52:22.861Z,2.89
2024-02-26T04:54:52.474Z,2.88
2024-02-26T04:57:20.476Z,2.90
2024-02-26T04:59:48.550Z,2.85
2024-02-26T05:02:16.976Z,2.87
2024-02-26T05:04:45.065Z,2.82
2024-02-26T05:07:13.726Z,2.87
2024-02-26T05:09:43.285Z,2.84
2024-02-26T05:12:12.914Z,2.87
2024-02-26T05:14:41.490Z,2.87
2024-02-26T05:17:09.524Z,2.88
2024-02-26T05:19:37.586Z,2.87
2024-02-26T05:22:05.671Z,2.88
2024-02-26T05:24:33.676Z,2.78
2024-02-26T05:27:02.207Z,2.75
2024-02-26T05:29:32.001Z,2.82
2024-02-26T05:32:00.000Z,2.84
2024-02-26T05:34:28.139Z,2.84
2024-02-26T05:36:56.280Z,2.79
2024-02-26T05:39:24.400Z,2.80
2024-02-26T05:41:52.425Z,2.76
2024-02-26T05:44:20.496Z,2.85
2024-02-26T05:46:49.840Z,2.90
2024-02-26T05:49:17.953Z,2.91
2024-02-26T05:51:46.015Z,2.91
2024-02-26T05:54:14.091Z,2.95
2024-02-26T05:56:42.155Z,2.97
2024-02-26T05:59:10.188Z,2.97
2024-02-26T06:01:38.232Z,3.01
2024-02-26T06:04:07.643Z,2.95
2024-02-26T06:06:35.892Z,2.97
2024-02-26T06:09:06.365Z,2.96
2024-02-26T06:11:34.458Z,2.95
2024-02-26T06:14:04.238Z,2.94
2024-02-26T06:16:32.761Z,2.91
2024-02-26T06:19:01.607Z,2.97
2024-02-26T06:21:31.294Z,2.97
2024-02-26T06:24:00.308Z,3.00
2024-02-26T06:26:29.957Z,3.01
2024-02-26T06:28:58.076Z,2.95
2024-02-26T06:31:28.653Z,2.97
2024-02-26T06:33:57.168Z,3.02
2024-02-26T06:36:25.538Z,3.00
2024-02-26T06:38:55.920Z,3.03
2024-02-26T06:41:28.287Z,2.94
2024-02-26T06:43:56.412Z,3.02
2024-02-26T06:46:24.418Z,3.02
2024-02-26T06:48:55.709Z,3.07
2024-02-26T06:51:24.410Z,3.18
2024-02-26T06:53:53.950Z,3.23
2024-02-26T06:56:21.928Z,3.29
2024-02-26T06:58:49.939Z,3.30
2024-02-26T07:01:17.945Z,3.32
2024-02-26T07:03:46.074Z,3.37
2024-02-26T07:06:15.235Z,3.40
2024-02-26T07:08:43.307Z,3.38
2024-02-26T07:11:12.873Z,3.39
2024-02-26T07:13:40.882Z,3.41
2024-02-26T07:16:11.352Z,3.48
2024-02-26T07:18:39.968Z,3.52
2024-02-26T07:21:08.138Z,3.54
2024-02-26T07:23:36.168Z,3.63
2024-02-26T07:26:04.550Z,3.65
2024-02-26T07:28:33.886Z,3.71
2024-02-26T07:31:01.866Z,3.72
2024-02-26T07:33:29.944Z,3.78
2024-02-26T07:35:58.108Z,3.82
2024-02-26T07:38:32.446Z,3.82
2024-02-26T07:41:10.055Z,3.83
2024-02-26T07:43:39.518Z,3.86
2024-02-26T07:46:07.910Z,3.87
2024-02-26T07:48:36.149Z,3.89
2024-02-26T07:51:05.575Z,3.86
2024-02-26T07:53:33.740Z,3.95
2024-02-26T07:56:01.839Z,4.03
2024-02-26T07:58:29.911Z,4.08
2024-02-26T08:00:59.321Z,4.15
2024-02-26T08:03:27.510Z,4.17
2024-02-26T08:05:56.307Z,4.20
2024-02-26T08:08:24.529Z,4.28
2024-02-26T08:10:52.598Z,4.28
2024-02-26T08:13:21.016Z,4.34
2024-02-26T08:15:49.031Z,4.38
2024-02-26T08:18:18.451Z,4.46
2024-02-26T08:20:47.188Z,4.55
2024-02-26T08:23:15.299Z,4.58
2024-02-26T08:25:43.245Z,4.66
2024-02-26T08:28:12.408Z,4.75
2024-02-26T08:30:40.430Z,4.78
2024-02-26T08:33:08.511Z,4.83
2024-02-26T08:35:38.022Z,4.90
2024-02-26T08:38:06.368Z,4.78
2024-02-26T08:40:34.454Z,4.76
2024-02-26T08:43:02.516Z,4.84
2024-02-26T08:45:31.066Z,4.97
2024-02-26T08:47:59.841Z,5.05
2024-02-26T08:50:28.032Z,5.13
2024-02-26T08:52:57.444Z,5.08
2024-02-26T08:55:25.509Z,5.10
2024-02-26T08:57:53.821Z,5.15
2024-02-26T09:00:22.226Z,5.24
2024-02-26T09:02:50.629Z,5.41
2024-02-26T09:05:18.840Z,5.47
2024-02-26T09:07:47.526Z,5.54
2024-02-26T09:10:17.133Z,5.71
2024-02-26T09:12:45.372Z,5.82
2024-02-26T09:15:13.949Z,5.84
2024-02-26T09:17:42.167Z,5.82
2024-02-26T09:20:11.409Z,5.99
2024-02-26T09:22:40.045Z,6.07
2024-02-26T09:25:08.753Z,6.17
2024-02-26T09:27:40.869Z,6.25
2024-02-26T09:30:12.008Z,6.27
2024-02-26T09:32:40.577Z,6.31
2024-02-26T09:35:09.442Z,6.27
2024-02-26T09:37:38.144Z,6.33
2024-02-26T09:40:07.329Z,6.35
2024-02-26T09:42:38.270Z,6.32
2024-02-26T09:45:09.793Z,6.43
2024-02-26T09:47:38.865Z,6.44
2024-02-26T09:50:10.150Z,6.45
2024-02-26T09:52:40.175Z,6.56
2024-02-26T09:55:10.287Z,6.57
2024-02-26T09:57:40.280Z,6.68
2024-02-26T10:00:12.747Z,6.78
2024-02-26T10:02:41.306Z,6.94
2024-02-26T10:05:12.494Z,7.08
2024-02-26T10:07:40.615Z,7.20
2024-02-26T10:10:09.283Z,7.22
2024-02-26T10:12:37.307Z,7.33
2024-02-26T10:15:07.486Z,7.47
2024-02-26T10:17:36.103Z,7.60
2024-02-26T10:20:14.733Z,7.67
2024-02-26T10:22:43.253Z,7.77
2024-02-26T10:25:11.313Z,7.72
2024-02-26T10:27:39.354Z,7.68
2024-02-26T10:30:19.663Z,7.84
2024-02-26T10:32:48.939Z,7.96
2024-02-26T10:35:18.847Z,8.04
2024-02-26T10:37:48.422Z,8.05
2024-02-26T10:40:17.265Z,8.14
2024-02-26T10:42:46.680Z,8.17
2024-02-26T10:45:16.336Z,8.26
2024-02-26T10:47:44.843Z,8.26
2024-02-26T10:50:15.334Z,8.32
2024-02-26T10:52:44.190Z,8.24
2024-02-26T10:55:19.258Z,8.27
2024-02-26T10:57:47.854Z,8.31
2024-02-26T11:00:18.364Z,8.26
2024-02-26T11:02:46.568Z,8.30
2024-02-26T11:05:14.713Z,8.29
2024-02-26T11:07:44.030Z,8.42
2024-02-26T11:10:13.765Z,8.34
2024-02-26T11:12:42.142Z,8.42
2024-02-26T11:15:11.372Z,8.44
2024-02-26T11:17:40.972Z,8.47
2024-02-26T11:20:14.052Z,8.46
2024-02-26T11:22:42.375Z,8.49
2024-02-26T11:25:12.389Z,8.47
2024-02-26T11:27:43.421Z,8.48
2024-02-26T11:30:12.908Z,8.56
2024-02-26T11:32:42.396Z,8.59
2024-02-26T11:35:11.750Z,8.55
2024-02-26T11:37:41.648Z,8.56
2024-02-26T11:40:13.934Z,8.69
2024-02-26T11:42:46.306Z,8.74
2024-02-26T11:45:49.131Z,8.71
2024-02-26T11:48:19.792Z,8.76
2024-02-26T11:50:49.961Z,8.81
2024-02-26T11:53:28.608Z,8.86
2024-02-26T11:56:28.126Z,8.93
2024-02-26T11:59:07.937Z,9.02
2024-02-26T12:01:43.409Z,9.17
2024-02-26T12:04:16.944Z,9.23
2024-02-26T12:06:47.372Z,9.28
2024-02-26T12:09:15.889Z,9.36
2024-02-26T12:11:44.692Z,9.38
2024-02-26T12:14:12.794Z,9.45
2024-02-26T12:16:41.397Z,9.55
2024-02-26T12:19:11.126Z,9.59
2024-02-26T12:21:40.603Z,9.52
2024-02-26T12:24:15.805Z,9.57
2024-02-26T12:26:44.140Z,9.59
2024-02-26T12:29:13.117Z,9.65
2024-02-26T12:31:41.597Z,9.59
2024-02-26T12:34:11.656Z,9.62
2024-02-26T12:36:41.636Z,9.64
2024-02-26T12:39:10.686Z,9.65
2024-02-26T12:41:40.341Z,9.70
2024-02-26T12:44:10.094Z,9.74
2024-02-26T12:46:38.105Z,9.84
2024-02-26T12:49:06.540Z,9.82
2024-02-26T12:51:35.513Z,9.92
2024-02-26T12:54:05.222Z,9.97
2024-02-26T12:56:33.526Z,10.08
2024-02-26T12:59:01.654Z,10.13
2024-02-26T13:01:30.027Z,10.11
2024-02-26T13:03:58.573Z,10.15
2024-02-26T13:06:26.810Z,10.20
2024-02-26T13:08:59.323Z,10.28
2024-02-26T13:11:30.082Z,10.31
2024-02-26T13:13:59.004Z,10.22
2024-02-26T13:16:27.561Z,10.21
2024-02-26T13:18:55.664Z,10.15
2024-02-26T13:21:25.793Z,10.13
2024-02-26T13:23:55.899Z,10.16
2024-02-26T13:26:25.650Z,10.21
2024-02-26T13:29:04.495Z,10.29
2024-02-26T13:31:32.626Z,10.33
2024-02-26T13:34:00.856Z,10.46
2024-02-26T13:36:29.134Z,10.46
2024-02-26T13:38:58.255Z,10.57
2024-02-26T13:41:26.455Z,10.64
2024-02-26T13:43:55.037Z,10.75
2024-02-26T13:46:24.396Z,10.76
2024-02-26T13:48:52.535Z,10.81
2024-02-26T13:51:20.628Z,10.86
2024-02-26T13:53:48.684Z,10.87
2024-02-26T13:56:16.919Z,10.91
2024-02-26T13:58:44.946Z,10.97
2024-02-26T14:01:13.082Z,10.99
2024-02-26T14:03:42.552Z,10.96
2024-02-26T14:06:10.937Z,10.96
2024-02-26T14:08:39.029Z,11.04
2024-02-26T14:11:07.176Z,11.09
2024-02-26T14:13:38.382Z,11.20
2024-02-26T14:16:08.204Z,11.09
2024-02-26T14:18:36.348Z,11.09
2024-02-26T14:21:06.194Z,11.11
2024-02-26T14:23:34.414Z,11.18
2024-02-26T14:26:02.779Z,11.21
2024-02-26T14:28:36.413Z,11.23
2024-02-26T14:31:08.448Z,11.31
2024-02-26T14:33:36.686Z,11.23
2024-02-26T14:36:07.125Z,11.17
2024-02-26T14:38:35.298Z,11.17
2024-02-26T14:41:03.508Z,11.13
2024-02-26T14:43:33.003Z,11.18
2024-02-26T14:46:01.307Z,11.14
2024-02-26T14:48:30.765Z,11.10
2024-02-26T14:50:58.917Z,11.05
2024-02-26T14:53:28.452Z,11.14
2024-02-26T14:55:56.476Z,11.09
2024-02-26T14:58:24.502Z,11.11
2024-02-26T15:00:53.763Z,11.11
2024-02-26T15:03:21.910Z,11.14
2024-02-26T15:05:50.145Z,11.21
2024-02-26T15:08:18.909Z,11.10
2024-02-26T15:10:49.973Z,11.04
2024-02-26T15:13:19.456Z,11.16
2024-02-26T15:15:48.369Z,11.19
2024-02-26T15:18:18.198Z,11.14
2024-02-26T15:20:47.416Z,11.18
2024-02-26T15:23:15.936Z,11.21
2024-02-26T15:25:44.332Z,11.09
2024-02-26T15:28:16.230Z,11.11
2024-02-26T15:30:45.244Z,10.93
2024-02-26T15:33:14.536Z,11.04
2024-02-26T15:35:46.127Z,11.00
2024-02-26T15:38:15.798Z,10.93
2024-02-26T15:40:45.696Z,10.89
2024-02-26T15:43:16.522Z,10.82
2024-02-26T15:45:45.052Z,10.79
2024-02-26T15:48:13.656Z,10.84
2024-02-26T15:50:43.520Z,10.88
2024-02-26T15:53:12.094Z,10.81
2024-02-26T15:55:41.243Z,10.77
2024-02-26T15:58:11.975Z,10.77
2024-02-26T16:00:45.327Z,10.56
2024-02-26T16:03:13.814Z,10.56
2024-02-26T16:05:42.747Z,10.51
2024-02-26T16:08:21.775Z,10.46
2024-02-26T16:10:50.750Z,10.39
2024-02-26T16:13:21.237Z,10.37
2024-02-26T16:15:53.600Z,10.36
2024-02-26T16:18:22.584Z,10.32
2024-02-26T16:20:51.412Z,10.30
2024-02-26T16:23:19.909Z,10.27
2024-02-26T16:25:51.358Z,10.28
2024-02-26T16:28:22.631Z,10.13
2024-02-26T16:30:53.188Z,10.08
2024-02-26T16:33:21.330Z,10.05
2024-02-26T16:35:49.432Z,10.04
2024-02-26T16:38:17.499Z,10.02
2024-02-26T16:40:45.562Z,9.99
2024-02-26T16:43:13.522Z,9.91
2024-02-26T16:45:41.777Z,9.88
2024-02-26T16:48:11.240Z,9.86
2024-02-26T16:50:39.360Z,9.82
2024-02-26T16:53:07.519Z,9.76
2024-02-26T16:55:35.533Z,9.74
2024-02-26T16:58:03.606Z,9.69
2024-02-26T17:00:31.635Z,9.60
2024-02-26T17:03:01.710Z,9.58
2024-02-26T17:05:31.107Z,9.51
2024-02-26T17:07:59.143Z,9.47
2024-02-26T17:10:27.176Z,9.43
2024-02-26T17:12:55.167Z,9.36
2024-02-26T17:15:23.237Z,9.28
2024-02-26T17:17:51.476Z,9.29
2024-02-26T17:20:20.011Z,9.31
2024-02-26T17:22:49.447Z,9.30
2024-02-26T17:25:18.412Z,9.30
2024-02-26T17:27:46.396Z,9.29
2024-02-26T17:30:14.699Z,9.16
2024-02-26T17:32:42.832Z,9.20
2024-02-26T17:35:15.071Z,9.17
2024-02-26T17:37:43.191Z,9.18
2024-02-26T17:40:13.883Z,9.18
2024-02-26T17:42:41.972Z,9.12
2024-02-26T17:45:10.883Z,9.00
2024-02-26T17:47:39.095Z,9.02
2024-02-26T17:50:08.127Z,8.91
2024-02-26T17:52:37.932Z,8.89
2024-02-26T17:55:06.999Z,8.98
2024-02-26T17:57:36.524Z,8.97
2024-02-26T18:00:06.345Z,8.94
2024-02-26T18:02:34.790Z,8.97
2024-02-26T18:05:02.874Z,8.96
2024-02-26T18:07:31.174Z,8.91
2024-02-26T18:09:59.477Z,8.91
2024-02-26T18:12:27.791Z,8.95
2024-02-26T18:14:57.222Z,8.92
2024-02-26T18:17:25.331Z,8.94
2024-02-26T18:19:53.659Z,8.91
2024-02-26T18:22:22.292Z,8.88
2024-02-26T18:24:50.329Z,8.89
2024-02-26T18:27:18.336Z,8.94
2024-02-26T18:29:46.405Z,8.93
2024-02-26T18:32:16.962Z,8.96
2024-02-26T18:34:46.111Z,9.03
2024-02-26T18:37:14.341Z,9.05
2024-02-26T18:39:42.575Z,9.04
2024-02-26T18:42:12.264Z,9.07
2024-02-26T18:44:41.627Z,9.05
2024-02-26T18:47:09.729Z,9.06
2024-02-26T18:49:42.958Z,8.99
2024-02-26T18:52:11.204Z,8.82
2024-02-26T18:54:40.390Z,8.80
2024-02-26T18:57:08.875Z,8.88
2024-02-26T18:59:37.569Z,8.96
2024-02-26T19:02:06.397Z,8.90
2024-02-26T19:04:34.387Z,8.95
2024-02-26T19:07:04.000Z,8.86
2024-02-26T19:09:32.194Z,8.87
2024-02-26T19:12:00.269Z,8.76
2024-02-26T19:14:28.743Z,8.70
2024-02-26T19:16:56.701Z,8.65
2024-02-26T19:19:25.010Z,8.54
2024-02-26T19:21:54.160Z,8.64
2024-02-26T19:24:23.612Z,8.60
2024-02-26T19:26:51.752Z,8.72
2024-02-26T19:29:19.801Z,8.72
2024-02-26T19:31:47.853Z,8.74
2024-02-26T19:34:16.027Z,8.79
2024-02-26T19:36:44.651Z,8.80
2024-02-26T19:39:12.768Z,8.84
2024-02-26T19:41:42.190Z,8.81
2024-02-26T19:44:13.398Z,8.77
2024-02-26T19:46:41.490Z,8.69
2024-02-26T19:49:11.842Z,8.71
2024-02-26T19:51:41.885Z,8.73
2024-02-26T19:54:10.008Z,8.75
2024-02-26T19:56:37.999Z,8.74
2024-02-26T19:59:07.369Z,8.71
2024-02-26T20:01:35.559Z,8.65
2024-02-26T20:04:03.642Z,8.64
2024-02-26T20:06:32.537Z,8.66
2024-02-26T20:09:00.806Z,8.57
2024-02-26T20:11:28.805Z,8.51
2024-02-26T20:13:56.860Z,8.51
2024-02-26T20:16:26.188Z,8.52
2024-02-26T20:18:54.576Z,8.47
2024-02-26T20:21:22.672Z,8.43
2024-02-26T20:23:50.827Z,8.43
2024-02-26T20:26:18.916Z,8.39
2024-02-26T20:28:46.967Z,8.35
2024-02-26T20:31:14.942Z,8.16
2024-02-26T20:33:44.878Z,8.14
2024-02-26T20:36:13.034Z,8.14
2024-02-26T20:38:41.156Z,8.14
2024-02-26T20:41:09.255Z,8.15
2024-02-26T20:43:37.262Z,8.17
2024-02-26T20:46:06.026Z,8.18
2024-02-26T20:48:34.316Z,8.20
2024-02-26T20:51:05.264Z,8.11
2024-02-26T20:53:33.331Z,7.92
2024-02-26T20:56:01.572Z,7.94
2024-02-26T20:58:29.580Z,7.81
2024-02-26T21:00:57.596Z,7.84
2024-02-26T21:03:25.726Z,7.87
2024-02-26T21:05:53.906Z,7.67
2024-02-26T21:08:32.469Z,7.60
2024-02-26T21:11:06.972Z,7.66
2024-02-26T21:13:38.147Z,7.67
2024-02-26T21:16:07.206Z,7.50
2024-02-26T21:18:37.768Z,7.47
2024-02-26T21:21:06.919Z,7.49
2024-02-26T21:23:37.196Z,7.50
2024-02-26T21:26:05.653Z,7.35
2024-02-26T21:28:33.657Z,7.33
2024-02-26T21:31:01.904Z,7.14
2024-02-26T21:33:30.121Z,7.17
2024-02-26T21:35:58.895Z,7.15
2024-02-26T21:38:32.659Z,7.16
2024-02-26T21:41:09.254Z,7.04
2024-02-26T21:43:39.112Z,6.98
2024-02-26T21:46:07.791Z,6.92
2024-02-26T21:48:39.450Z,6.85
2024-02-26T21:51:08.154Z,6.84
2024-02-26T21:53:36.198Z,6.78
2024-02-26T21:56:07.700Z,6.78
2024-02-26T21:58:37.691Z,6.79
2024-02-26T22:01:06.174Z,6.82
2024-02-26T22:03:34.664Z,6.79
2024-02-26T22:06:02.761Z,6.81
2024-02-26T22:08:30.779Z,6.77
2024-02-26T22:10:58.860Z,6.69
2024-02-26T22:13:26.951Z,6.60
2024-02-26T22:15:56.326Z,6.53
2024-02-26T22:18:24.454Z,6.55
2024-02-26T22:20:52.591Z,6.54
2024-02-26T22:23:20.625Z,6.55
2024-02-26T22:25:48.774Z,6.51
2024-02-26T22:28:16.752Z,6.30
2024-02-26T22:30:45.333Z,6.46
2024-02-26T22:33:15.101Z,6.52
2024-02-26T22:35:43.372Z,6.52
2024-02-26T22:38:11.690Z,6.50
2024-02-26T22:40:39.917Z,6.54
2024-02-26T22:43:08.431Z,6.48
2024-02-26T22:45:36.602Z,6.49
2024-02-26T22:48:05.459Z,6.32
2024-02-26T22:50:34.904Z,6.28
2024-02-26T22:53:02.918Z,6.27
2024-02-26T22:55:30.883Z,6.28
2024-02-26T22:57:59.441Z,6.29
2024-02-26T23:00:28.306Z,6.24
2024-02-26T23:02:56.728Z,6.14
2024-02-26T23:05:25.845Z,6.07
2024-02-26T23:07:56.467Z,6.02
2024-02-26T23:10:25.178Z,5.99
2024-02-26T23:12:53.823Z,5.97
2024-02-26T23:15:22.267Z,6.04
2024-02-26T23:17:50.436Z,6.02
2024-02-26T23:20:18.490Z,6.05
2024-02-26T23:22:48.302Z,6.00
2024-02-26T23:25:19.909Z,5.92
2024-02-26T23:27:48.951Z,5.90
2024-02-26T23:30:19.125Z,5.91
2024-02-26T23:32:47.419Z,5.87
2024-02-26T23:35:15.452Z,5.86
2024-02-26T23:37:43.423Z,5.84
2024-02-26T23:40:12.155Z,5.81
2024-02-26T23:42:41.658Z,5.84
2024-02-26T23:45:10.464Z,5.83
2024-02-26T23:47:38.618Z,5.80
2024-02-26T23:50:07.906Z,5.75
2024-02-26T23:52:35.993Z,5.65
2024-02-26T23:55:04.089Z,5.51
2024-02-26T23:57:32.414Z,5.55
